Aviation Digital Data Service (ADDS)

Output produced by METARs form (0038 UTC 20 April 2019)
found at http://www.aviationweather.gov/metar/data/
 
Forecast for: KAUS (AUSTIN , TX, US)
Text: KAUS 192333Z 2000/2106 35009KT P6SM SKC
Forecast period: 0000 to 0200 UTC 20 April 2019
Forecast type: FROM: standard forecast or significant change
Winds: from the N (350 degrees) at 10 MPH (9 knots; 4.6 m/s)
Visibility: 6 or more miles 10+ km)
Clouds: clear skies
Weather: no significant weather forecast for this period
Text: FM200200 VRB03KT P6SM SKC
Forecast period: 0200 to 1500 UTC 20 April 2019
Forecast type: FROM: standard forecast or significant change
Winds: variable direction winds at 3 MPH (3 knots; 1.5 m/s)
Visibility: 6 or more miles 10+ km)
Clouds: clear skies
Weather: no significant weather forecast for this period
Text: FM201500 18010KT P6SM FEW250
Forecast period: 1500 UTC 20 April 2019 to 0600 UTC 21 April 2019
Forecast type: FROM: standard forecast or significant change
Winds: from the S (180 degrees) at 12 MPH (10 knots; 5.1 m/s)
Visibility: 6 or more miles 10+ km)
Ceiling: at least 12,000 feet AGL
Clouds: few clouds at 25000 feet AGL
Weather: no significant weather forecast for this period